DLH7HY EDDF-EPWA
Flight info
| Callsign | DLH7HY |
|---|---|
| Flight time | 1h 19m |
| Altitude | 37000 |
| Route | SULUS7S/18 SULUS L984 OKG DCT BALTU DCT LEGAZ DCT LAGAR DCT OKENO Q277 AGAVA |
| Aircraft | A321/M-SDE2E3FGIJ1LORWXYZ/HB1 |
Departure
| Time | 2026-05-04 17:01 |
|---|---|
| Airport | Frankfurt Main Airport (EDDF) |
Arrival
| Time | 2026-05-04 18:20 |
|---|---|
| Airport | Warsaw Chopin Airport (EPWA) |
| Time | Latitude | Longitude | Altitude | Speed | Heading |
|---|---|---|---|---|---|
| 2026-05-04 16:24 | 50.04455 | 8.56430 | 356 ft | 0 kts | 154° |
| 2026-05-04 16:48 | 50.04489 | 8.56405 | 363 ft | 4 kts | 160° |
| 2026-05-04 16:48 | 50.04513 | 8.56397 | 363 ft | 4 kts | 202° |
| 2026-05-04 16:49 | 50.04516 | 8.56380 | 360 ft | 0 kts | 250° |
| 2026-05-04 16:55 | 50.04461 | 8.56150 | 358 ft | 14 kts | 249° |
| 2026-05-04 16:55 | 50.04319 | 8.56074 | 360 ft | 15 kts | 178° |
| 2026-05-04 16:56 | 50.04191 | 8.55739 | 356 ft | 22 kts | 249° |
| 2026-05-04 16:56 | 50.04034 | 8.55083 | 359 ft | 23 kts | 248° |
| 2026-05-04 16:57 | 50.03978 | 8.54845 | 359 ft | 25 kts | 250° |
| 2026-05-04 16:57 | 50.03833 | 8.54313 | 351 ft | 28 kts | 238° |
| 2026-05-04 16:58 | 50.03630 | 8.53529 | 337 ft | 23 kts | 249° |
| 2026-05-04 16:58 | 50.03574 | 8.53290 | 335 ft | 24 kts | 249° |
| 2026-05-04 16:59 | 50.03457 | 8.52820 | 332 ft | 21 kts | 246° |
| 2026-05-04 17:00 | 50.03312 | 8.52596 | 336 ft | 0 kts | 180° |
| 2026-05-04 17:00 | 50.01484 | 8.52611 | 397 ft | 178 kts | 183° |
| 2026-05-04 17:01 | 49.99069 | 8.52614 | 1888 ft | 179 kts | 181° |
| 2026-05-04 17:01 | 49.96434 | 8.53738 | 2442 ft | 226 kts | 137° |
| 2026-05-04 17:02 | 49.94727 | 8.58018 | 3719 ft | 237 kts | 119° |
| 2026-05-04 17:02 | 49.93956 | 8.63117 | 4004 ft | 263 kts | 94° |
| 2026-05-04 17:03 | 49.93844 | 8.65975 | 4008 ft | 266 kts | 95° |
| 2026-05-04 17:03 | 49.93373 | 8.68748 | 4151 ft | 270 kts | 118° |
| 2026-05-04 17:03 | 49.90783 | 8.72815 | 5984 ft | 267 kts | 146° |
| 2026-05-04 17:04 | 49.88019 | 8.76702 | 7637 ft | 276 kts | 127° |
| 2026-05-04 17:04 | 49.86097 | 8.81945 | 9265 ft | 283 kts | 123° |
| 2026-05-04 17:05 | 49.84143 | 8.87349 | 10628 ft | 296 kts | 123° |
| 2026-05-04 17:05 | 49.81966 | 8.93306 | 11210 ft | 334 kts | 123° |
| 2026-05-04 17:06 | 49.79652 | 8.99671 | 12482 ft | 344 kts | 122° |
| 2026-05-04 17:06 | 49.78473 | 9.02920 | 13168 ft | 348 kts | 122° |
| 2026-05-04 17:07 | 49.76212 | 9.09595 | 13939 ft | 358 kts | 113° |
| 2026-05-04 17:07 | 49.75724 | 9.12090 | 13986 ft | 360 kts | 106° |
| 2026-05-04 17:07 | 49.74940 | 9.17110 | 14548 ft | 364 kts | 106° |
| 2026-05-04 17:07 | 49.74333 | 9.20919 | 15184 ft | 367 kts | 106° |
| 2026-05-04 17:08 | 49.73711 | 9.24765 | 15797 ft | 370 kts | 106° |
| 2026-05-04 17:08 | 49.72443 | 9.32553 | 17012 ft | 377 kts | 107° |
| 2026-05-04 17:08 | 49.71798 | 9.36507 | 17599 ft | 381 kts | 106° |
| 2026-05-04 17:09 | 49.71148 | 9.40497 | 18176 ft | 385 kts | 106° |
| 2026-05-04 17:09 | 49.70489 | 9.44521 | 18688 ft | 388 kts | 107° |
| 2026-05-04 17:09 | 49.69823 | 9.48569 | 19198 ft | 391 kts | 107° |
| 2026-05-04 17:10 | 49.68466 | 9.56771 | 20169 ft | 397 kts | 107° |
| 2026-05-04 17:10 | 49.67469 | 9.69568 | 21618 ft | 411 kts | 84° |
| 2026-05-04 17:11 | 49.68084 | 9.73901 | 22076 ft | 416 kts | 76° |
| 2026-05-04 17:11 | 49.68857 | 9.78213 | 22539 ft | 418 kts | 76° |
| 2026-05-04 17:11 | 49.70394 | 9.86937 | 23451 ft | 423 kts | 76° |
| 2026-05-04 17:12 | 49.71189 | 9.91319 | 23831 ft | 426 kts | 72° |
| 2026-05-04 17:12 | 49.73957 | 9.99490 | 24520 ft | 434 kts | 54° |
| 2026-05-04 17:13 | 49.79284 | 10.10924 | 25549 ft | 444 kts | 54° |
| 2026-05-04 17:14 | 49.84703 | 10.22716 | 26614 ft | 452 kts | 54° |
| 2026-05-04 17:14 | 49.86531 | 10.26707 | 26949 ft | 455 kts | 54° |
| 2026-05-04 17:14 | 49.90217 | 10.34758 | 27656 ft | 460 kts | 54° |
| 2026-05-04 17:15 | 49.92075 | 10.38824 | 28008 ft | 463 kts | 54° |
| 2026-05-04 17:15 | 49.95818 | 10.47027 | 28695 ft | 468 kts | 54° |
| 2026-05-04 17:16 | 49.99588 | 10.55350 | 29356 ft | 473 kts | 54° |
| 2026-05-04 17:16 | 50.05124 | 10.68136 | 30369 ft | 479 kts | 63° |
| 2026-05-04 17:17 | 50.06415 | 10.72910 | 30662 ft | 480 kts | 72° |
| 2026-05-04 17:17 | 50.07530 | 10.88322 | 31505 ft | 481 kts | 92° |
| 2026-05-04 17:18 | 50.07525 | 10.93538 | 31764 ft | 482 kts | 92° |
| 2026-05-04 17:18 | 50.07514 | 11.03948 | 32487 ft | 479 kts | 92° |
| 2026-05-04 17:19 | 50.07500 | 11.14296 | 33270 ft | 476 kts | 92° |
| 2026-05-04 17:19 | 50.07473 | 11.24567 | 34019 ft | 473 kts | 92° |
| 2026-05-04 17:20 | 50.07437 | 11.34792 | 34609 ft | 472 kts | 92° |
| 2026-05-04 17:20 | 50.07390 | 11.45002 | 35149 ft | 472 kts | 92° |
| 2026-05-04 17:20 | 50.07364 | 11.50106 | 35410 ft | 472 kts | 92° |
| 2026-05-04 17:21 | 50.07299 | 11.60313 | 35982 ft | 472 kts | 92° |
| 2026-05-04 17:21 | 50.07230 | 11.70442 | 36517 ft | 471 kts | 92° |
| 2026-05-04 17:22 | 50.07202 | 11.75539 | 36776 ft | 471 kts | 92° |
| 2026-05-04 17:22 | 50.07172 | 11.80644 | 36944 ft | 471 kts | 92° |
| 2026-05-04 17:23 | 50.07012 | 12.00871 | 36973 ft | 466 kts | 92° |
| 2026-05-04 17:24 | 50.06844 | 12.15988 | 36969 ft | 465 kts | 92° |
| 2026-05-04 17:25 | 50.06583 | 12.36130 | 36972 ft | 466 kts | 93° |
| 2026-05-04 17:26 | 50.06861 | 12.56326 | 36981 ft | 468 kts | 88° |
| 2026-05-04 17:27 | 50.07727 | 12.81590 | 36991 ft | 467 kts | 89° |
| 2026-05-04 17:28 | 50.08213 | 13.01815 | 36982 ft | 467 kts | 89° |
| 2026-05-04 17:29 | 50.09594 | 13.32048 | 36976 ft | 468 kts | 73° |
| 2026-05-04 17:30 | 50.14040 | 13.45419 | 36970 ft | 467 kts | 57° |
| 2026-05-04 17:31 | 50.17457 | 13.54048 | 36968 ft | 468 kts | 57° |
| 2026-05-04 17:32 | 50.25964 | 13.75727 | 36974 ft | 469 kts | 58° |
| 2026-05-04 17:33 | 50.32182 | 13.91665 | 36983 ft | 469 kts | 58° |
| 2026-05-04 17:34 | 50.38938 | 14.09114 | 36990 ft | 468 kts | 57° |
| 2026-05-04 17:35 | 50.47352 | 14.30929 | 36992 ft | 468 kts | 58° |
| 2026-05-04 17:36 | 50.50704 | 14.39683 | 36988 ft | 468 kts | 58° |
| 2026-05-04 17:36 | 50.54048 | 14.48456 | 36982 ft | 468 kts | 58° |
| 2026-05-04 17:37 | 50.57385 | 14.57263 | 36972 ft | 468 kts | 58° |
| 2026-05-04 17:37 | 50.60717 | 14.66057 | 36993 ft | 468 kts | 58° |
| 2026-05-04 17:38 | 50.64036 | 14.74855 | 36999 ft | 467 kts | 58° |
| 2026-05-04 17:38 | 50.66956 | 14.83981 | 36987 ft | 467 kts | 69° |
| 2026-05-04 17:39 | 50.70407 | 14.98367 | 36984 ft | 468 kts | 68° |
| 2026-05-04 17:39 | 50.72714 | 15.07954 | 36982 ft | 467 kts | 69° |
| 2026-05-04 17:40 | 50.74993 | 15.17497 | 36977 ft | 467 kts | 68° |
| 2026-05-04 17:40 | 50.77284 | 15.27171 | 36983 ft | 467 kts | 69° |
| 2026-05-04 17:41 | 50.79537 | 15.36729 | 37002 ft | 467 kts | 69° |
| 2026-05-04 17:41 | 50.81927 | 15.46352 | 36992 ft | 467 kts | 66° |
| 2026-05-04 17:42 | 50.84404 | 15.55782 | 36985 ft | 468 kts | 66° |
| 2026-05-04 17:42 | 50.86883 | 15.65307 | 36980 ft | 468 kts | 67° |
| 2026-05-04 17:43 | 50.89313 | 15.74869 | 36978 ft | 468 kts | 67° |
| 2026-05-04 17:43 | 50.91716 | 15.84444 | 36977 ft | 468 kts | 67° |
| 2026-05-04 17:44 | 50.94124 | 15.94019 | 36980 ft | 467 kts | 67° |
| 2026-05-04 17:44 | 50.96530 | 16.03590 | 36984 ft | 467 kts | 67° |
| 2026-05-04 17:45 | 50.98929 | 16.13180 | 36966 ft | 467 kts | 67° |
| 2026-05-04 17:45 | 51.01318 | 16.22768 | 36962 ft | 467 kts | 67° |
| 2026-05-04 17:46 | 51.03696 | 16.32371 | 36955 ft | 467 kts | 67° |
| 2026-05-04 17:46 | 51.06061 | 16.41978 | 36961 ft | 466 kts | 67° |
| 2026-05-04 17:47 | 51.08416 | 16.51568 | 36965 ft | 466 kts | 67° |
| 2026-05-04 17:47 | 51.10770 | 16.61178 | 36968 ft | 466 kts | 67° |
| 2026-05-04 17:48 | 51.13115 | 16.70793 | 36963 ft | 466 kts | 68° |
| 2026-05-04 17:48 | 51.15449 | 16.80413 | 36957 ft | 466 kts | 68° |
| 2026-05-04 17:49 | 51.17775 | 16.90060 | 36938 ft | 466 kts | 68° |
| 2026-05-04 17:49 | 51.20089 | 16.99708 | 36945 ft | 466 kts | 68° |
| 2026-05-04 17:50 | 51.22393 | 17.09352 | 36947 ft | 465 kts | 68° |
| 2026-05-04 17:50 | 51.24687 | 17.18996 | 36949 ft | 465 kts | 68° |
| 2026-05-04 17:51 | 51.26981 | 17.28646 | 36955 ft | 465 kts | 68° |
| 2026-05-04 17:51 | 51.29267 | 17.38304 | 36953 ft | 465 kts | 68° |
| 2026-05-04 17:52 | 51.31526 | 17.47911 | 36948 ft | 465 kts | 68° |
| 2026-05-04 17:52 | 51.33786 | 17.57607 | 36956 ft | 465 kts | 70° |
| 2026-05-04 17:53 | 51.35143 | 17.67707 | 36956 ft | 465 kts | 79° |
| 2026-05-04 17:53 | 51.36274 | 17.77902 | 36956 ft | 465 kts | 79° |
| 2026-05-04 17:54 | 51.37386 | 17.88101 | 36959 ft | 465 kts | 79° |
| 2026-05-04 17:54 | 51.38681 | 17.98241 | 36535 ft | 466 kts | 71° |
| 2026-05-04 17:55 | 51.39694 | 18.03192 | 35127 ft | 468 kts | 70° |
| 2026-05-04 17:55 | 51.40750 | 18.08079 | 34332 ft | 463 kts | 69° |
| 2026-05-04 17:55 | 51.41813 | 18.12877 | 34180 ft | 450 kts | 69° |
| 2026-05-04 17:55 | 51.42844 | 18.17531 | 34080 ft | 437 kts | 69° |
| 2026-05-04 17:56 | 51.43847 | 18.22094 | 33673 ft | 433 kts | 69° |
| 2026-05-04 17:56 | 51.44834 | 18.26627 | 33187 ft | 429 kts | 69° |
| 2026-05-04 17:56 | 51.45804 | 18.31137 | 32716 ft | 426 kts | 69° |
| 2026-05-04 17:56 | 51.46756 | 18.35616 | 32231 ft | 423 kts | 70° |
| 2026-05-04 17:57 | 51.47700 | 18.40068 | 31752 ft | 420 kts | 70° |
| 2026-05-04 17:57 | 51.48636 | 18.44494 | 31291 ft | 418 kts | 70° |
| 2026-05-04 17:57 | 51.49565 | 18.48896 | 30828 ft | 415 kts | 70° |
| 2026-05-04 17:57 | 51.50473 | 18.53208 | 30377 ft | 413 kts | 70° |
| 2026-05-04 17:58 | 51.51390 | 18.57557 | 29914 ft | 410 kts | 70° |
| 2026-05-04 17:58 | 51.52301 | 18.61878 | 29456 ft | 406 kts | 70° |
| 2026-05-04 17:58 | 51.53201 | 18.66157 | 29008 ft | 403 kts | 70° |
| 2026-05-04 17:58 | 51.54089 | 18.70393 | 28591 ft | 398 kts | 70° |
| 2026-05-04 17:59 | 51.54966 | 18.74584 | 28161 ft | 394 kts | 70° |
| 2026-05-04 17:59 | 51.55831 | 18.78729 | 27768 ft | 390 kts | 70° |
| 2026-05-04 17:59 | 51.57532 | 18.86908 | 26977 ft | 381 kts | 70° |
| 2026-05-04 18:00 | 51.58366 | 18.90929 | 26585 ft | 378 kts | 70° |
| 2026-05-04 18:00 | 51.59193 | 18.94924 | 26211 ft | 375 kts | 71° |
| 2026-05-04 18:00 | 51.60012 | 18.98897 | 25809 ft | 373 kts | 71° |
| 2026-05-04 18:00 | 51.60824 | 19.02849 | 25415 ft | 371 kts | 71° |
| 2026-05-04 18:01 | 51.61630 | 19.06775 | 25023 ft | 369 kts | 71° |
| 2026-05-04 18:01 | 51.62432 | 19.10678 | 24607 ft | 367 kts | 71° |
| 2026-05-04 18:01 | 51.63231 | 19.14563 | 24208 ft | 365 kts | 71° |
| 2026-05-04 18:02 | 51.64807 | 19.22285 | 23354 ft | 362 kts | 71° |
| 2026-05-04 18:02 | 51.65585 | 19.26113 | 22906 ft | 359 kts | 71° |
| 2026-05-04 18:02 | 51.66357 | 19.29916 | 22495 ft | 356 kts | 72° |
| 2026-05-04 18:02 | 51.67125 | 19.33699 | 22070 ft | 354 kts | 72° |
| 2026-05-04 18:03 | 51.67888 | 19.37447 | 21649 ft | 352 kts | 72° |
| 2026-05-04 18:03 | 51.68646 | 19.41178 | 21243 ft | 349 kts | 72° |
| 2026-05-04 18:03 | 51.69398 | 19.44890 | 20824 ft | 347 kts | 72° |
| 2026-05-04 18:03 | 51.70142 | 19.48580 | 20411 ft | 345 kts | 72° |
| 2026-05-04 18:04 | 51.70879 | 19.52256 | 19994 ft | 343 kts | 72° |
| 2026-05-04 18:04 | 51.71609 | 19.55906 | 19584 ft | 341 kts | 72° |
| 2026-05-04 18:04 | 51.73057 | 19.63158 | 18765 ft | 338 kts | 72° |
| 2026-05-04 18:05 | 51.73776 | 19.66765 | 18357 ft | 337 kts | 72° |
| 2026-05-04 18:05 | 51.74493 | 19.70365 | 17892 ft | 336 kts | 73° |
| 2026-05-04 18:05 | 51.75202 | 19.73938 | 17486 ft | 333 kts | 73° |
| 2026-05-04 18:05 | 51.75907 | 19.77485 | 17086 ft | 331 kts | 72° |
| 2026-05-04 18:06 | 51.77296 | 19.84495 | 16290 ft | 326 kts | 73° |
| 2026-05-04 18:06 | 51.77983 | 19.87976 | 15896 ft | 324 kts | 73° |
| 2026-05-04 18:06 | 51.78666 | 19.91434 | 15508 ft | 323 kts | 73° |
| 2026-05-04 18:07 | 51.79345 | 19.94887 | 15112 ft | 322 kts | 73° |
| 2026-05-04 18:07 | 51.80019 | 19.98324 | 14724 ft | 320 kts | 73° |
| 2026-05-04 18:07 | 51.80689 | 20.01752 | 14337 ft | 319 kts | 73° |
| 2026-05-04 18:07 | 51.81357 | 20.05167 | 13947 ft | 319 kts | 73° |
| 2026-05-04 18:08 | 51.82025 | 20.08582 | 13543 ft | 318 kts | 73° |
| 2026-05-04 18:08 | 51.82689 | 20.11981 | 13149 ft | 316 kts | 73° |
| 2026-05-04 18:08 | 51.83348 | 20.15362 | 12758 ft | 314 kts | 73° |
| 2026-05-04 18:08 | 51.83999 | 20.18721 | 12432 ft | 311 kts | 73° |
| 2026-05-04 18:09 | 51.85281 | 20.25340 | 11712 ft | 307 kts | 73° |
| 2026-05-04 18:09 | 51.86541 | 20.31895 | 10974 ft | 304 kts | 73° |
| 2026-05-04 18:10 | 51.87168 | 20.35154 | 10598 ft | 303 kts | 73° |
| 2026-05-04 18:10 | 51.87795 | 20.38400 | 10218 ft | 302 kts | 73° |
| 2026-05-04 18:10 | 51.88418 | 20.41632 | 9854 ft | 301 kts | 73° |
| 2026-05-04 18:10 | 51.89039 | 20.44861 | 9461 ft | 300 kts | 73° |
| 2026-05-04 18:11 | 51.89653 | 20.48070 | 9084 ft | 298 kts | 73° |
| 2026-05-04 18:11 | 51.90251 | 20.51215 | 8720 ft | 296 kts | 74° |
| 2026-05-04 18:11 | 51.90855 | 20.54388 | 8356 ft | 294 kts | 74° |
| 2026-05-04 18:11 | 51.91455 | 20.57538 | 7992 ft | 292 kts | 74° |
| 2026-05-04 18:12 | 51.92052 | 20.60673 | 7637 ft | 290 kts | 73° |
| 2026-05-04 18:12 | 51.92643 | 20.63786 | 7270 ft | 289 kts | 73° |
| 2026-05-04 18:12 | 51.93231 | 20.66892 | 6906 ft | 287 kts | 73° |
| 2026-05-04 18:12 | 51.93814 | 20.69984 | 6548 ft | 286 kts | 73° |
| 2026-05-04 18:13 | 51.94395 | 20.73060 | 6185 ft | 285 kts | 73° |
| 2026-05-04 18:13 | 51.94972 | 20.76121 | 5818 ft | 283 kts | 73° |
| 2026-05-04 18:13 | 51.96111 | 20.82195 | 5104 ft | 280 kts | 73° |
| 2026-05-04 18:14 | 51.96674 | 20.85202 | 4761 ft | 278 kts | 73° |
| 2026-05-04 18:14 | 51.97233 | 20.88191 | 4394 ft | 276 kts | 73° |
| 2026-05-04 18:14 | 51.97780 | 20.91116 | 4227 ft | 262 kts | 73° |
| 2026-05-04 18:15 | 51.98751 | 20.96310 | 3990 ft | 233 kts | 74° |
| 2026-05-04 18:15 | 51.99694 | 21.01347 | 3769 ft | 233 kts | 71° |
| 2026-05-04 18:15 | 52.00462 | 21.03623 | 3494 ft | 230 kts | 51° |
| 2026-05-04 18:16 | 52.01649 | 21.05370 | 3052 ft | 229 kts | 29° |
| 2026-05-04 18:16 | 52.03064 | 21.06317 | 2862 ft | 213 kts | 9° |
| 2026-05-04 18:16 | 52.04486 | 21.06500 | 2673 ft | 200 kts | 352° |
| 2026-05-04 18:17 | 52.06839 | 21.05196 | 2251 ft | 161 kts | 327° |
| 2026-05-04 18:17 | 52.07795 | 21.04368 | 2033 ft | 152 kts | 327° |
| 2026-05-04 18:17 | 52.09618 | 21.02782 | 1647 ft | 147 kts | 327° |
| 2026-05-04 18:18 | 52.10514 | 21.02001 | 1470 ft | 146 kts | 327° |
| 2026-05-04 18:18 | 52.11402 | 21.01216 | 1285 ft | 145 kts | 327° |
| 2026-05-04 18:18 | 52.12286 | 21.00428 | 1088 ft | 146 kts | 329° |
| 2026-05-04 18:18 | 52.13184 | 20.99680 | 882 ft | 147 kts | 330° |
| 2026-05-04 18:19 | 52.14990 | 20.98094 | 484 ft | 147 kts | 329° |
| 2026-05-04 18:19 | 52.15882 | 20.97330 | 354 ft | 143 kts | 329° |
| 2026-05-04 18:19 | 52.16676 | 20.96624 | 336 ft | 109 kts | 331° |
| 2026-05-04 18:20 | 52.17186 | 20.96172 | 334 ft | 60 kts | 332° |
| 2026-05-04 18:20 | 52.17420 | 20.95983 | 336 ft | 20 kts | 352° |
| 2026-05-04 18:20 | 52.17523 | 20.96045 | 335 ft | 14 kts | 25° |
| 2026-05-04 18:20 | 52.17579 | 20.96116 | 335 ft | 10 kts | 64° |
| 2026-05-04 18:21 | 52.17570 | 20.96232 | 338 ft | 11 kts | 122° |
| 2026-05-04 18:21 | 52.17499 | 20.96303 | 336 ft | 13 kts | 153° |
| 2026-05-04 18:21 | 52.17460 | 20.96336 | 335 ft | 2 kts | 152° |
| 2026-05-04 18:21 | 52.17448 | 20.96347 | 336 ft | 4 kts | 152° |
| 2026-05-04 18:22 | 52.17413 | 20.96378 | 337 ft | 8 kts | 152° |
| 2026-05-04 18:22 | 52.17351 | 20.96432 | 333 ft | 12 kts | 152° |
| 2026-05-04 18:22 | 52.17271 | 20.96501 | 336 ft | 14 kts | 152° |
| 2026-05-04 18:22 | 52.17176 | 20.96583 | 333 ft | 17 kts | 152° |
| 2026-05-04 18:23 | 52.17068 | 20.96679 | 338 ft | 19 kts | 152° |
| 2026-05-04 18:23 | 52.16946 | 20.96785 | 335 ft | 21 kts | 152° |
| 2026-05-04 18:23 | 52.16813 | 20.96902 | 337 ft | 20 kts | 152° |
| 2026-05-04 18:23 | 52.16727 | 20.96976 | 336 ft | 11 kts | 152° |
| 2026-05-04 18:24 | 52.16697 | 20.97076 | 339 ft | 12 kts | 72° |
| 2026-05-04 18:24 | 52.16756 | 20.97175 | 337 ft | 13 kts | 8° |
| 2026-05-04 18:24 | 52.16838 | 20.97119 | 334 ft | 12 kts | 332° |
| 2026-05-04 18:24 | 52.16909 | 20.97060 | 334 ft | 9 kts | 339° |
| 2026-05-04 18:25 | 52.16934 | 20.97102 | 334 ft | 6 kts | 63° |
| 2026-05-04 18:25 | 52.16951 | 20.97166 | 338 ft | 6 kts | 68° |
| 2026-05-04 18:25 | 52.16956 | 20.97187 | 336 ft | 1 kts | 68° |
| 2026-05-04 18:25 | 52.16958 | 20.97191 | 337 ft | 0 kts | 68° |